Emmonak Airport Emmonak US
ICAO: PAEM
IATA:
Category: Medium
Scheduled Services:

Elevation: 13 ft
TransAlt. 18000 ft.

Airport Communications:
AWOS 3:135.35
ANCHORAGE CNTR:132.5
CTAF:122.9
KENAI RDO:122.55
TWEB:177.8

PAEM Zoom In..

Runways:

(A) RW 16 length 4601 ft width 100 ft
---- / hdg 163

(B) RW 34 length 4601 ft width 100 ft
---- / hdg 343

Location; PAEM
Day. 26 / Time. 13.19 Zulu
* Altimeter: 29.79
* Temperature: 01° c. 33.8°f.
* Wind from: 290° Speed 09 kn.
Dewpoint: 00° c.
Visibility: 9 Statute Miles.
Clouds: Scattered 1100 ft.
Clouds: Overcast 3000 ft.

PAEM 261319Z AUTO 29009KT 9SM UP SCT011 OVC030 01/00 A2979 RMK AO2 RAB00E10UPB19SNB10E19 P0000 FZRANO


Wind From 290°
Speed 09 kn.

 
 
jpsmedia.com for Web Design SOUNDCLOUD worldairports.se 2018   terms of use